Magdagaci, Russia
Current Conditions -  °F | °C
As of 10:00 PM on Friday 28 Nov 2014 (Local Time) from UHBB Reporting Station
Clear Clear  
Wind Chill: -6°   Ceiling: Unl
Heat Index: -6°   Visibility: 6mi
Dew Point: -8°   Wind: 2mph
Humidity: 92%   Direction: NA
Pressure: 30.18"   Gusts: NA
Location:  53.47°N, 125.82°E
Report Text: UHBB 281300Z VRB01MPS CAVOK M21/M22 Q1022 NOSIG RMK QFE749/099936410250
Loading
Personal Weather Stations






























Interactive Weather Map New forecast layout! Learn more

10-Day Weather Forecast

Advertisements
Track Severe Weather on mobile